createdAt,value
2019-02-16T00:01:30.536Z,3.33
2019-02-16T00:04:01.404Z,3.27
2019-02-16T00:06:31.759Z,3.38
2019-02-16T00:09:02.442Z,3.47
2019-02-16T00:11:34.746Z,3.11
2019-02-16T00:14:05.061Z,2.96
2019-02-16T00:16:35.783Z,2.92
2019-02-16T00:19:06.391Z,2.96
2019-02-16T00:21:36.749Z,3.00
2019-02-16T00:24:07.428Z,3.15
2019-02-16T00:26:37.778Z,2.97
2019-02-16T00:29:09.187Z,2.70
2019-02-16T00:31:39.945Z,2.53
2019-02-16T00:34:10.259Z,2.67
2019-02-16T00:36:40.550Z,2.51
2019-02-16T00:39:11.249Z,2.44
2019-02-16T00:41:41.761Z,2.73
2019-02-16T00:44:12.085Z,2.53
2019-02-16T00:46:42.922Z,2.71
2019-02-16T00:49:13.499Z,2.63
2019-02-16T00:51:43.848Z,2.65
2019-02-16T00:54:14.468Z,2.43
2019-02-16T00:56:45.401Z,1.96
2019-02-16T00:59:15.682Z,1.83
2019-02-16T01:01:46.206Z,1.74
2019-02-16T01:04:17.000Z,2.01
2019-02-16T01:06:47.335Z,2.14
2019-02-16T01:09:17.633Z,2.13
2019-02-16T01:11:48.318Z,2.03
2019-02-16T01:14:18.598Z,2.22
2019-02-16T01:16:49.030Z,2.30
2019-02-16T01:19:19.860Z,2.25
2019-02-16T01:21:50.240Z,2.14
2019-02-16T01:24:20.615Z,1.91
2019-02-16T01:26:50.909Z,2.01
2019-02-16T01:29:21.199Z,2.15
2019-02-16T01:31:51.843Z,2.04
2019-02-16T01:34:22.108Z,1.90
2019-02-16T01:36:52.407Z,2.03
2019-02-16T01:39:23.147Z,1.97
2019-02-16T01:41:53.613Z,2.05
2019-02-16T01:44:23.904Z,1.82
2019-02-16T01:46:54.714Z,2.09
2019-02-16T01:49:25.288Z,1.96
2019-02-16T01:51:55.668Z,1.89
2019-02-16T01:54:26.051Z,1.45
2019-02-16T01:56:56.472Z,1.42
2019-02-16T01:59:27.126Z,1.75
2019-02-16T02:01:57.517Z,2.05
2019-02-16T02:04:30.634Z,2.24
2019-02-16T02:07:01.319Z,1.90
2019-02-16T02:09:31.890Z,1.91
2019-02-16T02:12:02.216Z,1.86
2019-02-16T02:14:32.938Z,1.95
2019-02-16T02:17:03.643Z,2.00
2019-02-16T02:19:33.914Z,1.95
2019-02-16T02:22:04.480Z,2.01
2019-02-16T02:24:34.753Z,1.94
2019-02-16T02:27:05.399Z,1.99
2019-02-16T02:29:35.806Z,1.99
2019-02-16T02:32:06.058Z,2.03
2019-02-16T02:34:36.694Z,1.97
2019-02-16T02:37:07.376Z,2.01
2019-02-16T02:39:37.735Z,1.90
2019-02-16T02:42:08.463Z,1.96
2019-02-16T02:44:39.121Z,2.04
2019-02-16T02:47:09.723Z,2.09
2019-02-16T02:49:40.001Z,2.20
2019-02-16T02:52:10.753Z,2.07
2019-02-16T02:54:42.106Z,2.13
2019-02-16T02:57:12.920Z,2.18
2019-02-16T02:59:43.182Z,1.68
2019-02-16T03:02:13.582Z,1.49
2019-02-16T03:04:45.308Z,1.45
2019-02-16T03:07:15.641Z,1.34
2019-02-16T03:09:45.901Z,1.41
2019-02-16T03:12:16.529Z,1.35
2019-02-16T03:14:46.834Z,1.40
2019-02-16T03:17:17.242Z,1.53
2019-02-16T03:19:47.766Z,1.76
2019-02-16T03:22:18.363Z,1.90
2019-02-16T03:24:48.634Z,1.99
2019-02-16T03:27:49.084Z,1.76
2019-02-16T03:30:41.598Z,1.93
2019-02-16T03:33:51.398Z,1.83
2019-02-16T03:37:13.811Z,1.98
2019-02-16T03:39:46.679Z,1.46
2019-02-16T03:42:17.309Z,1.51
2019-02-16T03:44:47.916Z,1.44
2019-02-16T03:47:18.194Z,1.44
2019-02-16T03:49:49.037Z,1.59
2019-02-16T03:52:19.617Z,1.72
2019-02-16T03:54:49.924Z,1.55
2019-02-16T03:57:20.706Z,1.45
2019-02-16T03:59:51.104Z,1.43
2019-02-16T04:02:20.968Z,1.40
2019-02-16T04:04:51.606Z,1.40
2019-02-16T04:07:21.901Z,1.33
2019-02-16T04:09:52.454Z,1.34
2019-02-16T04:12:23.149Z,1.31
2019-02-16T04:14:53.488Z,1.30
2019-02-16T04:17:24.219Z,1.23
2019-02-16T04:19:54.778Z,1.29
2019-02-16T04:22:25.216Z,1.25
2019-02-16T04:24:55.696Z,1.24
2019-02-16T04:27:26.333Z,1.15
2019-02-16T04:29:56.658Z,0.98
2019-02-16T04:32:27.055Z,0.99
2019-02-16T04:34:57.791Z,1.24
2019-02-16T04:37:28.458Z,1.52
2019-02-16T04:39:59.116Z,1.76
2019-02-16T04:42:29.498Z,1.76
2019-02-16T04:44:59.992Z,1.70
2019-02-16T04:47:30.677Z,1.63
2019-02-16T04:50:01.181Z,1.57
2019-02-16T04:52:34.666Z,1.46
2019-02-16T04:55:03.908Z,1.32
2019-02-16T04:57:34.217Z,1.30
2019-02-16T05:00:04.858Z,1.43
2019-02-16T05:02:35.682Z,1.42
2019-02-16T05:05:06.421Z,1.35
2019-02-16T05:07:36.816Z,1.30
2019-02-16T05:10:07.699Z,1.24
2019-02-16T05:12:38.441Z,1.16
2019-02-16T05:15:09.170Z,1.07
2019-02-16T05:17:39.802Z,1.00
2019-02-16T05:20:10.463Z,0.87
2019-02-16T05:22:44.565Z,0.87
2019-02-16T05:25:13.025Z,1.06
2019-02-16T05:27:43.866Z,0.89
2019-02-16T05:30:14.136Z,0.30
2019-02-16T05:32:44.417Z,0.32
2019-02-16T05:35:15.453Z,0.24
2019-02-16T05:37:45.749Z,0.25
2019-02-16T05:40:16.442Z,0.21
2019-02-16T05:42:46.711Z,0.08
2019-02-16T05:45:17.381Z,-0.15
2019-02-16T05:47:48.104Z,-0.17
2019-02-16T05:50:18.519Z,-0.21
2019-02-16T05:52:54.428Z,-0.18
2019-02-16T05:55:21.083Z,-0.20
2019-02-16T05:57:51.363Z,-0.28
2019-02-16T06:00:25.411Z,-0.38
2019-02-16T06:02:56.239Z,-0.35
2019-02-16T06:05:26.909Z,-0.26
2019-02-16T06:07:57.206Z,-0.26
2019-02-16T06:10:27.791Z,-0.23
2019-02-16T06:12:58.079Z,-0.17
2019-02-16T06:15:28.868Z,-0.13
2019-02-16T06:17:59.153Z,-0.03
2019-02-16T06:20:29.503Z,-0.09
2019-02-16T06:23:04.464Z,0.05
2019-02-16T06:25:32.256Z,0.34
2019-02-16T06:28:02.574Z,0.40
2019-02-16T06:30:33.556Z,0.57
2019-02-16T06:33:04.202Z,0.80
2019-02-16T06:35:41.750Z,0.93
2019-02-16T06:38:12.349Z,-1.05
2019-02-16T06:40:43.000Z,0.93
2019-02-16T06:43:13.362Z,1.23
2019-02-16T06:45:43.944Z,1.44
2019-02-16T06:48:14.223Z,1.49
2019-02-16T06:50:45.016Z,1.75
2019-02-16T06:53:15.791Z,2.18
2019-02-16T06:56:11.093Z,2.28
2019-02-16T06:58:41.745Z,2.68
2019-02-16T07:01:12.348Z,2.74
2019-02-16T07:03:42.704Z,2.85
2019-02-16T07:06:13.190Z,2.80
2019-02-16T07:08:44.291Z,2.99
2019-02-16T07:11:14.651Z,3.12
2019-02-16T07:13:44.928Z,3.36
2019-02-16T07:16:44.247Z,3.50
2019-02-16T07:19:32.435Z,3.64
2019-02-16T07:22:03.007Z,3.72
2019-02-16T07:24:33.440Z,3.73
2019-02-16T07:27:04.176Z,3.98
2019-02-16T07:29:34.537Z,3.88
2019-02-16T07:32:04.864Z,3.96
2019-02-16T07:34:35.367Z,4.05
2019-02-16T07:37:06.143Z,4.19
2019-02-16T07:39:36.424Z,4.11
2019-02-16T07:42:06.760Z,4.47
2019-02-16T07:45:02.493Z,4.52
2019-02-16T07:47:48.238Z,4.53
2019-02-16T07:50:24.456Z,4.64
2019-02-16T07:53:13.949Z,4.62
2019-02-16T07:56:06.053Z,4.66
2019-02-16T07:58:54.105Z,4.61
2019-02-16T08:01:46.340Z,4.73
2019-02-16T08:04:27.463Z,4.77
2019-02-16T08:07:17.041Z,4.81
2019-02-16T08:10:18.353Z,4.72
2019-02-16T08:13:07.546Z,4.80
2019-02-16T08:15:48.510Z,5.03
2019-02-16T08:18:37.259Z,4.61
2019-02-16T08:21:44.987Z,4.67
2019-02-16T08:24:31.781Z,4.80
2019-02-16T08:27:23.790Z,4.57
2019-02-16T08:30:25.377Z,4.69
2019-02-16T08:33:13.427Z,5.17
2019-02-16T08:36:02.644Z,5.55
2019-02-16T08:38:52.282Z,5.70
2019-02-16T08:41:41.779Z,5.85
2019-02-16T08:44:26.318Z,5.99
2019-02-16T08:47:04.175Z,6.26
2019-02-16T08:49:59.211Z,6.35
2019-02-16T08:52:51.167Z,6.50
2019-02-16T08:55:56.210Z,6.61
2019-02-16T08:58:48.865Z,6.35
2019-02-16T09:01:47.609Z,6.47
2019-02-16T09:04:35.328Z,6.81
2019-02-16T09:07:24.544Z,6.87
2019-02-16T09:10:20.260Z,6.65
2019-02-16T09:13:09.888Z,6.56
2019-02-16T09:16:11.350Z,6.57
2019-02-16T09:19:10.052Z,6.50
2019-02-16T09:22:07.119Z,6.74
2019-02-16T09:24:45.908Z,7.20
2019-02-16T09:27:37.098Z,7.18
2019-02-16T09:30:27.477Z,7.21
2019-02-16T09:33:15.465Z,7.22
2019-02-16T09:36:03.423Z,7.57
2019-02-16T09:38:39.614Z,7.73
2019-02-16T09:41:15.851Z,7.73
2019-02-16T09:44:05.126Z,8.14
2019-02-16T09:47:00.532Z,8.34
2019-02-16T09:49:58.905Z,8.13
2019-02-16T09:52:36.403Z,8.17
2019-02-16T09:55:16.921Z,9.07
2019-02-16T09:58:05.143Z,9.35
2019-02-16T10:00:41.618Z,9.64
2019-02-16T10:03:30.238Z,9.75
2019-02-16T10:06:19.843Z,9.31
2019-02-16T10:09:08.753Z,9.72
2019-02-16T10:11:47.077Z,10.36
2019-02-16T10:14:37.423Z,10.14
2019-02-16T10:17:22.398Z,10.41
2019-02-16T10:20:24.219Z,10.43
2019-02-16T10:23:02.399Z,11.00
2019-02-16T10:25:52.095Z,11.02
2019-02-16T10:28:50.935Z,10.95
2019-02-16T10:31:32.776Z,11.29
2019-02-16T10:34:20.635Z,11.61
2019-02-16T10:37:08.562Z,11.41
2019-02-16T10:39:47.086Z,12.14
2019-02-16T10:42:27.965Z,11.97
2019-02-16T10:45:15.909Z,12.16
2019-02-16T10:48:00.685Z,12.71
2019-02-16T10:50:44.426Z,12.03
2019-02-16T10:53:36.491Z,13.00
2019-02-16T10:56:33.193Z,13.03
2019-02-16T10:59:14.355Z,13.53
2019-02-16T11:02:09.695Z,13.90
2019-02-16T11:04:57.889Z,14.06
2019-02-16T11:07:39.510Z,13.56
2019-02-16T11:10:23.866Z,13.05
2019-02-16T11:13:10.651Z,13.14
2019-02-16T11:16:09.466Z,12.93
2019-02-16T11:18:53.077Z,12.85
2019-02-16T11:21:45.415Z,12.07
2019-02-16T11:24:40.757Z,11.56
2019-02-16T11:27:30.008Z,12.48
2019-02-16T11:30:12.753Z,10.03
2019-02-16T11:33:02.016Z,11.35
2019-02-16T11:35:53.933Z,11.40
2019-02-16T11:38:55.659Z,10.68
2019-02-16T11:41:43.948Z,11.95
2019-02-16T11:44:32.306Z,11.79
2019-02-16T11:47:20.679Z,11.54
2019-02-16T11:50:03.281Z,10.06
2019-02-16T11:52:53.620Z,11.23
2019-02-16T11:55:52.135Z,11.99
2019-02-16T11:58:59.407Z,12.01
2019-02-16T12:01:57.775Z,12.13
2019-02-16T12:04:46.112Z,11.42
2019-02-16T12:07:23.854Z,11.89
2019-02-16T12:10:11.099Z,12.70
2019-02-16T12:12:55.640Z,13.32
2019-02-16T12:15:47.728Z,13.10
2019-02-16T12:18:53.116Z,13.64
2019-02-16T12:21:42.631Z,13.34
2019-02-16T12:24:44.273Z,13.26
2019-02-16T12:27:39.466Z,13.11
2019-02-16T12:30:22.990Z,12.68
2019-02-16T12:33:12.388Z,12.52
2019-02-16T12:35:50.850Z,12.62
2019-02-16T12:38:38.960Z,12.80
2019-02-16T12:41:31.255Z,13.17
2019-02-16T12:44:23.939Z,12.97
2019-02-16T12:47:13.357Z,13.61
2019-02-16T12:49:53.636Z,13.78
2019-02-16T12:52:52.707Z,13.45
2019-02-16T12:55:44.770Z,13.53
2019-02-16T12:58:23.706Z,13.54
2019-02-16T13:01:10.218Z,12.78
2019-02-16T13:03:59.460Z,11.37
2019-02-16T13:06:46.869Z,12.15
2019-02-16T13:09:29.070Z,12.60
2019-02-16T13:12:14.599Z,12.14
2019-02-16T13:15:09.253Z,12.96
2019-02-16T13:18:02.663Z,13.55
2019-02-16T13:20:46.604Z,13.43
2019-02-16T13:23:28.257Z,12.86
2019-02-16T13:26:23.693Z,12.86
2019-02-16T13:29:19.263Z,13.68
2019-02-16T13:32:08.822Z,14.43
2019-02-16T13:34:46.788Z,14.65
2019-02-16T13:37:34.535Z,15.71
2019-02-16T13:40:26.907Z,16.26
2019-02-16T13:42:59.693Z,14.82
2019-02-16T13:45:47.759Z,15.58
2019-02-16T13:48:26.566Z,15.07
2019-02-16T13:51:03.702Z,15.33
2019-02-16T13:53:53.500Z,15.37
2019-02-16T13:56:38.653Z,15.05
2019-02-16T13:59:18.443Z,15.11
2019-02-16T14:02:10.747Z,16.04
2019-02-16T14:05:08.909Z,13.50
2019-02-16T14:08:01.258Z,13.73
2019-02-16T14:10:40.325Z,14.44
2019-02-16T14:13:29.043Z,14.27
2019-02-16T14:16:13.700Z,15.08
2019-02-16T14:18:44.234Z,14.65
2019-02-16T14:21:14.881Z,14.57
2019-02-16T14:23:45.165Z,13.85
2019-02-16T14:26:15.711Z,13.07
2019-02-16T14:28:46.232Z,13.05
2019-02-16T14:31:18.576Z,12.83
2019-02-16T14:33:48.986Z,11.49
2019-02-16T14:36:19.679Z,13.03
2019-02-16T14:38:55.736Z,12.78
2019-02-16T14:41:26.098Z,13.26
2019-02-16T14:43:57.011Z,13.14
2019-02-16T14:46:27.587Z,13.07
2019-02-16T14:48:57.964Z,13.01
2019-02-16T14:51:28.353Z,13.03
2019-02-16T14:53:59.068Z,12.03
2019-02-16T14:56:29.347Z,12.56
2019-02-16T14:58:59.785Z,12.86
2019-02-16T15:01:30.120Z,12.41
2019-02-16T15:04:00.814Z,12.41
2019-02-16T15:06:31.631Z,12.24
2019-02-16T15:09:01.915Z,12.35
2019-02-16T15:11:33.866Z,11.68
2019-02-16T15:14:04.320Z,11.44
2019-02-16T15:16:34.587Z,12.06
2019-02-16T15:19:05.242Z,11.66
2019-02-16T15:21:35.760Z,11.62
2019-02-16T15:24:06.039Z,11.41
2019-02-16T15:26:36.579Z,11.38
2019-02-16T15:29:06.981Z,11.97
2019-02-16T15:31:37.659Z,12.19
2019-02-16T15:34:08.227Z,12.01
2019-02-16T15:36:38.753Z,11.33
2019-02-16T15:39:09.160Z,10.49
2019-02-16T15:41:39.967Z,10.47
2019-02-16T15:44:10.843Z,10.57
2019-02-16T15:46:41.227Z,10.22
2019-02-16T15:49:12.171Z,9.81
2019-02-16T15:51:42.406Z,9.31
2019-02-16T15:54:13.005Z,8.99
2019-02-16T15:56:43.707Z,8.52
2019-02-16T15:59:14.179Z,9.26
2019-02-16T16:01:44.596Z,9.24
2019-02-16T16:04:14.904Z,8.42
2019-02-16T16:06:45.183Z,8.48
2019-02-16T16:09:30.690Z,7.90
2019-02-16T16:12:19.994Z,7.42
2019-02-16T16:15:08.083Z,7.06
2019-02-16T16:18:00.857Z,6.68
2019-02-16T16:20:36.557Z,7.25
2019-02-16T16:23:34.904Z,7.34
2019-02-16T16:26:34.149Z,7.11
2019-02-16T16:29:19.180Z,6.94
2019-02-16T16:32:14.472Z,7.20
2019-02-16T16:35:21.681Z,6.93
2019-02-16T16:38:06.365Z,7.10
2019-02-16T16:40:54.480Z,6.77
2019-02-16T16:43:53.170Z,6.78
2019-02-16T16:46:57.727Z,6.97
2019-02-16T16:49:59.426Z,6.87
2019-02-16T16:52:51.855Z,6.67
2019-02-16T16:55:50.443Z,6.70
2019-02-16T16:58:42.833Z,6.79
2019-02-16T17:01:26.808Z,6.84
2019-02-16T17:04:33.975Z,6.29
2019-02-16T17:07:27.056Z,5.90
2019-02-16T17:10:12.212Z,5.51
2019-02-16T17:13:01.436Z,5.14
2019-02-16T17:15:55.764Z,4.96
2019-02-16T17:18:46.916Z,5.40
2019-02-16T17:21:36.088Z,4.87
2019-02-16T17:24:24.290Z,4.49
2019-02-16T17:27:04.638Z,4.37
2019-02-16T17:29:56.989Z,4.26
2019-02-16T17:32:49.035Z,4.05
2019-02-16T17:35:41.099Z,4.00
2019-02-16T17:38:29.162Z,3.81
2019-02-16T17:41:11.950Z,3.98
2019-02-16T17:44:00.884Z,3.99
2019-02-16T17:46:45.454Z,3.96
2019-02-16T17:49:44.286Z,3.93
2019-02-16T17:52:23.119Z,3.74
2019-02-16T17:55:12.929Z,3.75
2019-02-16T17:57:55.987Z,3.62
2019-02-16T18:00:35.460Z,3.62
2019-02-16T18:03:20.425Z,3.53
2019-02-16T18:06:09.664Z,3.53
2019-02-16T18:09:14.008Z,3.45
2019-02-16T18:11:49.901Z,3.35
2019-02-16T18:14:54.769Z,3.32
2019-02-16T18:17:41.167Z,3.39
2019-02-16T18:20:40.112Z,3.40
2019-02-16T18:23:15.133Z,3.25
2019-02-16T18:26:10.534Z,3.13
2019-02-16T18:28:58.146Z,3.16
2019-02-16T18:31:38.285Z,3.22
2019-02-16T18:34:25.113Z,3.11
2019-02-16T18:37:12.982Z,3.06
2019-02-16T18:39:54.008Z,3.04
2019-02-16T18:42:42.805Z,3.07
2019-02-16T18:45:32.613Z,2.98
2019-02-16T18:48:21.819Z,2.96
2019-02-16T18:51:10.716Z,3.04
2019-02-16T18:54:09.009Z,3.01
2019-02-16T18:57:06.756Z,3.00
2019-02-16T18:59:46.321Z,2.95
2019-02-16T19:02:34.771Z,2.90
2019-02-16T19:05:30.389Z,2.88
2019-02-16T19:08:27.408Z,2.93
2019-02-16T19:11:25.880Z,2.99
2019-02-16T19:14:24.242Z,2.87
2019-02-16T19:17:02.099Z,2.96
2019-02-16T19:19:54.434Z,2.83
2019-02-16T19:22:33.770Z,2.82
2019-02-16T19:25:38.289Z,2.84
2019-02-16T19:28:27.782Z,2.75
2019-02-16T19:31:09.018Z,2.77
2019-02-16T19:33:52.579Z,2.73
2019-02-16T19:36:35.979Z,2.79
2019-02-16T19:39:19.869Z,2.76
2019-02-16T19:42:09.441Z,2.87
2019-02-16T19:44:57.888Z,2.90
2019-02-16T19:47:56.180Z,2.97
2019-02-16T19:50:44.623Z,2.86
2019-02-16T19:53:26.788Z,2.77
2019-02-16T19:56:22.153Z,2.80
2019-02-16T19:59:14.224Z,2.69
2019-02-16T20:02:01.575Z,2.63
2019-02-16T20:04:44.211Z,2.63
2019-02-16T20:07:33.635Z,2.51
2019-02-16T20:10:21.872Z,2.66
2019-02-16T20:13:11.135Z,2.47
2019-02-16T20:15:48.748Z,2.44
2019-02-16T20:18:40.763Z,2.34
2019-02-16T20:21:24.431Z,2.31
2019-02-16T20:24:06.276Z,2.37
2019-02-16T20:26:54.009Z,2.44
2019-02-16T20:29:33.581Z,2.35
2019-02-16T20:32:35.386Z,2.47
2019-02-16T20:35:23.409Z,2.21
2019-02-16T20:38:00.812Z,2.39
2019-02-16T20:40:48.413Z,2.39
2019-02-16T20:43:27.352Z,2.25
2019-02-16T20:46:19.502Z,2.23
2019-02-16T20:49:03.217Z,2.16
2019-02-16T20:51:42.725Z,2.14
2019-02-16T20:54:50.350Z,2.12
2019-02-16T20:57:35.606Z,2.06
2019-02-16T21:00:31.030Z,2.02
2019-02-16T21:03:30.457Z,1.98
2019-02-16T21:06:20.393Z,2.03
2019-02-16T21:09:12.679Z,2.08
2019-02-16T21:12:00.326Z,2.29
2019-02-16T21:14:55.931Z,2.20
2019-02-16T21:17:46.543Z,2.26
2019-02-16T21:20:34.603Z,2.16
2019-02-16T21:23:27.374Z,2.24
2019-02-16T21:26:05.513Z,2.40
2019-02-16T21:28:45.316Z,2.31
2019-02-16T21:31:30.289Z,2.19
2019-02-16T21:34:05.941Z,2.00
2019-02-16T21:36:44.090Z,1.92
2019-02-16T21:39:34.958Z,1.83
2019-02-16T21:42:19.522Z,1.75
2019-02-16T21:45:07.689Z,1.92
2019-02-16T21:47:55.687Z,2.07
2019-02-16T21:50:44.105Z,2.09
2019-02-16T21:53:34.139Z,2.13
2019-02-16T21:56:17.537Z,2.03
2019-02-16T21:59:18.646Z,2.20
2019-02-16T22:01:52.943Z,2.06
2019-02-16T22:04:35.826Z,2.22
2019-02-16T22:07:24.610Z,2.42
2019-02-16T22:10:25.907Z,2.59
2019-02-16T22:13:15.363Z,2.10
2019-02-16T22:15:45.978Z,2.04
2019-02-16T22:18:17.419Z,1.94
2019-02-16T22:20:47.770Z,1.94
2019-02-16T22:23:18.723Z,1.89
2019-02-16T22:25:49.253Z,1.91
2019-02-16T22:28:30.223Z,1.89
2019-02-16T22:30:52.214Z,1.76
2019-02-16T22:33:22.787Z,1.88
2019-02-16T22:35:53.692Z,2.23
2019-02-16T22:38:24.356Z,2.01
2019-02-16T22:40:54.993Z,2.04
2019-02-16T22:43:25.927Z,2.08
2019-02-16T22:45:56.461Z,2.31
2019-02-16T22:48:26.988Z,2.36
2019-02-16T22:50:57.828Z,2.25
2019-02-16T22:53:28.356Z,2.34
2019-02-16T22:55:58.886Z,2.49
2019-02-16T22:58:29.682Z,2.43
2019-02-16T23:01:00.348Z,2.45
2019-02-16T23:03:32.513Z,2.44
2019-02-16T23:06:03.459Z,2.20
2019-02-16T23:08:33.865Z,2.13
2019-02-16T23:11:05.726Z,2.03
2019-02-16T23:13:35.993Z,2.25
2019-02-16T23:16:06.319Z,2.39
2019-02-16T23:18:36.942Z,2.25
2019-02-16T23:21:08.506Z,2.36
2019-02-16T23:23:38.861Z,2.46
2019-02-16T23:26:09.896Z,2.44
2019-02-16T23:28:40.580Z,2.57
2019-02-16T23:31:10.897Z,2.50
2019-02-16T23:33:41.471Z,2.61
2019-02-16T23:36:11.997Z,2.27
2019-02-16T23:38:42.307Z,2.17
2019-02-16T23:41:12.843Z,2.42
2019-02-16T23:43:43.445Z,2.30
2019-02-16T23:46:13.762Z,2.30
2019-02-16T23:48:44.043Z,2.32
2019-02-16T23:51:14.713Z,2.01
2019-02-16T23:53:45.042Z,1.98
2019-02-16T23:56:15.307Z,2.08
2019-02-16T23:58:49.217Z,2.11
